Thief River Falls Regional Airport

Airport
ICAO code: 
KTVF
Summary
ICAO Region: 
NAM
Territory: 
Location: 
Thief River Falls, Minnesota,
Coordinates: 
Aerial View: 
48° 4' 2.073" N, 96° 10' 45.774" W
Airport CFIT: 
Altimeter Temperature Error Correction
Airport GND: 
Aircraft Ground De/Anti Icing
Airport RE: 
Landing on Contaminated Runways
Metar
Observation
KTVF 040656Z AUTO 28012KT 10SM CLR M05/M09 A3020 RMK AO2 SLP248 T10501094 FZRANO
Station
Thief River Falls, Thief River Falls Regional Airport
Date/Time
2021-12-04 06:56:00
Wind direction
280°
Wind speed
12 kts
Lowest cloud amount
n/a
Temperature
-5°C
Dew point
-9.4°C
Humidity
71%
Weather condition
n/a

Description

Thief River Falls Regional Airport is a public use airport located 6 km south of the central business district of Thief River Falls, a city in Pennington County, Minnesota.

Climatology

Humid Continental climate (Köppen climate classification Dfb) - Variable weather patterns and a large seasonal temperature variance. Summers are often warm and humid with frequent thunderstorms and winters can be very cold with frequent snowfall and persistent snow cover.

Runways

Designator Length Width Surface Rops
3/21 1523 23 ASP No/No
13/31 1982 46 ASP No/No
Airport map: 
Aerial View: 

SKYbrary Partners:

Safety knowledge contributed by: